AirNav   Air Wisconsin Up To $57,000 Bonus
 
 1199 users online  

PN03 Abington Memorial Hospital Heliport
Abington, Pennsylvania, USA

GOING TO ABINGTON?


FAA INFORMATION EFFECTIVE 07 NOVEMBER 2019

Location

FAA Identifier: PN03
Lat/Long: 40-07-09.2600N 075-07-11.5400W
40-07.154333N 075-07.192333W
40.1192389,-75.1198722
(estimated)
Elevation: 436 ft. / 133 m (estimated)
Variation: 12W (1995)
Time zone: UTC -5 (UTC -4 during Daylight Saving Time)
Zip code: 19001

Heliport Operations

Heliport use: Private use. Permission required prior to landing
Activation date: 05/1996
Control tower: no
ARTCC: NEW YORK CENTER
FSS: WILLIAMSPORT FLIGHT SERVICE STATION
Attendance: CONTINUOUS
Wind indicator: lighted
Segmented circle: no
Lights: FOR PERIMETER LGTS CALL 215-481-2764.

Heliport Communications

WX ASOS at PNE (5 nm SE): PHONE 215-677-0146
WX AWOS-3 at LOM (7 nm W): 118.925 (215-646-1068)
WX ASOS at DYL (13 nm N): 118.875 (215-345-0392)
WX ASOS at PHL (16 nm S): PHONE 215-492-9617
WX ASOS at VAY (16 nm SE): 119.325 (609-267-1176)
WX ASOS at TTN (17 nm NE): 126.775 (609-538-8690)
WX AWOS-3 at CKZ (18 nm NW): 126.325 (215-257-7291)

Nearby radio navigation aids

VOR radial/distance  VOR name  Freq  Var
ARDr240/12.6YARDLEY VOR/DME108.2010W
PTWr116/21.1POTTSTOWN VORTAC116.5009W
GXUr297/24.9MC GUIRE VORTAC110.6012W
MXEr074/28.0MODENA VORTAC113.2009W
RBVr270/29.1ROBBINSVILLE VORTAC113.8010W
OODr026/30.2WOODSTOWN VORTAC112.8010W
SBJr222/32.8SOLBERG VOR/DME112.9010W
DQOr050/34.7DUPONT VORTAC114.0010W
VCNr359/35.6CEDAR LAKE VOR/DME115.2010W
CYNr310/36.5COYLE VORTAC113.4010W
ETXr146/37.9EAST TEXAS VOR/DME110.2009W
FJCr167/39.5ALLENTOWN VORTAC117.5010W

 
NDB name  Hdg/Dist  Freq  Var  ID
AMBLER105/7.627512WING .. -. --.
LAKEHURST288/36.339611WNEL -. . .-..

Heliport Services

Runway Information

Helipad H1

Dimensions: 48 x 48 ft. / 15 x 15 m
Surface: concrete
ROOFTOP.
Runway edge lights: PERI
Runway edge markings: RED WITH WHITE HOSPITAL CROSS; RED H; WHITE BORDERLINE & 15 INCHES.
Latitude: 40-07.154333N
Longitude: 075-07.192333W
Elevation: 436.0 ft.
Traffic pattern: leftleft
Markings: NSTD

Heliport Ownership and Management from official FAA records

Ownership: Privately-owned
Owner: ABINGTON MEMORIAL HOSPITAL
1200 OLD YORK RD
ABINGTON, PA 19001
Phone 215-481-2000
Manager: RICHARD SZATKOWSKI
1200 OLD YORK RD
ABINGTON, PA 19001
Phone 215-481-2764

Additional Remarks

FATO 65 X 65 FT. APCH 250 & 340. DEP 070 & 160.
FOR CD CTC PHILADELPHIA APCH AT 800-354-9884.

Instrument Procedures

There are no published instrument procedures at PN03.

Some nearby airports with instrument procedures:

KPNE - Northeast Philadelphia Airport (5 nm SE)
KLOM - Wings Field Airport (7 nm W)
KDYL - Doylestown Airport (13 nm N)
N10 - Perkiomen Valley Airport (15 nm W)
KPHL - Philadelphia International Airport (16 nm S)
KVAY - South Jersey Regional Airport (16 nm SE)
KTTN - Trenton Mercer Airport (17 nm NE)
KCKZ - Pennridge Airport (18 nm NW)
N14 - Flying W Airport (18 nm SE)
 
Loc | Ops | Rwys | IFR | FBO | Links
Com | Nav | Svcs | Stats | Notes
Area around PN03 (Abington Memorial Hospital Heliport)
 
Road maps at: MapQuest Bing Google
 
Aerial photo
No photo
 
Sectional chart

 
Airport distance calculator
Flying to Abington Memorial Hospital Heliport? Find the distance to fly.

From to PN03

Sunrise and sunset
Times for 15-Nov-2019
 Local
(UTC-5)
 Zulu
(UTC)
Morning civil twilight06:1811:18
Sunrise06:4711:47
Sunset16:4321:43
Evening civil twilight17:1222:12

Current date and time
Zulu (UTC)  15-Nov-2019 21:42:42
Local (UTC-5)  15-Nov-2019 16:42:42
 
METAR
KPNE 
5nm SE 
152054Z 27007KT 10SM CLR 11/M05 A3018 RMK AO2 SLP222 T01061050 55006
KLOM 
7nm W 
152115Z AUTO 27004KT 10SM CLR 08/M04 A3017 RMK AO2 T00821036
KDYL 
13nm N 
152054Z AUTO 24005KT 10SM CLR 09/M05 A3015 RMK AO2 SLP215 T00941050 55005
KPHL 
16nm S 
152054Z 29007KT 10SM BKN250 10/M06 A3018 RMK AO2 SLP220 T01001061 55005 $
KTTN 
17nm NE 
ASOS 133.70 609-538-8690
152053Z 25005KT 10SM CLR 09/M05 A3016 RMK AO2 SLP207 T00941050 55005
KVAY 
17nm SE 
ASOS 119.325 609-267-1176
152054Z AUTO 26005KT 10SM CLR 11/M04 A3017 RMK AO2 SLP217 T01061044 55005
KCKZ 
18nm NW 
152115Z AUTO 25004KT 10SM CLR 08/M05 A3016 RMK AO2
TAF
KPNE 
5nm SE 
151739Z 1518/1618 30012KT P6SM SCT250 FM152200 29008KT P6SM SCT250 FM160200 33005KT P6SM SCT250 FM160500 36008KT P6SM FEW250 FM161000 02012KT P6SM FEW250 FM161400 04015KT P6SM FEW250
KPHL 
16nm S 
151739Z 1518/1624 25008KT P6SM SCT250 FM152200 29006KT P6SM SCT250 FM160200 32006KT P6SM SCT250 FM160500 36008KT P6SM FEW250 FM160900 02012G16KT P6SM FEW250 FM161500 04015G24KT P6SM FEW250
KTTN 
17nm NE 
151739Z 1518/1618 28009KT P6SM FEW250 FM152300 29005KT P6SM SCT250 FM160300 35007KT P6SM FEW250 FM160900 02010KT P6SM FEW250 FM161500 04014KT P6SM FEW250
NOTAMs
Click for the latest NOTAMs
NOTAMs are issued by the DoD/FAA and will open in a separate window not controlled by AirNav.

 

 
 

Would you like to see your business listed on this page?

 If your business provides an interesting product or service to pilots, flight crews, aircraft, or users of the Abington Memorial Hospital Heliport, you should consider listing it here.  To start the listing process, click on the button below
 
Add a business
 

Other Pages about Abington Memorial Hospital Heliport

Update a link
 
Copyright © AirNav, LLC. All rights reserved. Privacy Policy  Contact